Time;durP1;ratioP1;P1;durP2;ratioP2;P2;SDS_P1;SDS_P2;PMS_P1;PMS_P2;Temp;Humidity;BMP_temperature;BMP_pressure;BME280_temperature;BME280_humidity;BME280_pressure;Samples;Min_cycle;Max_cycle;Signal;HPM_P1;HPM_P2
2023/05/03 00:02:04;;;;;;;18.98;12.38;;;7.20;78.40;;;;;;4961419;28;20050;-76
2023/05/03 00:04:30;;;;;;;24.35;14.18;;;7.10;78.70;;;;;;4968218;28;20123;-75
2023/05/03 00:06:56;;;;;;;20.25;13.10;;;7.10;78.90;;;;;;4959737;28;20574;-77
2023/05/03 00:09:22;;;;;;;20.35;11.80;;;7.10;79.10;;;;;;4960835;28;20015;-76
2023/05/03 00:11:48;;;;;;;20.70;12.35;;;7.10;79.20;;;;;;4962825;28;20169;-76
2023/05/03 00:14:14;;;;;;;19.75;12.45;;;7.10;79.10;;;;;;4969401;28;20022;-76
2023/05/03 00:16:40;;;;;;;21.38;12.65;;;7.10;79.00;;;;;;4964658;28;20360;-75
2023/05/03 00:19:06;;;;;;;59.15;27.08;;;7.10;79.00;;;;;;4968369;28;20030;-76
2023/05/03 00:21:31;;;;;;;82.75;37.47;;;7.20;79.00;;;;;;4965965;28;20026;-76
2023/05/03 00:23:57;;;;;;;205.98;114.40;;;7.20;79.00;;;;;;4967372;28;20362;-77
2023/05/03 00:26:23;;;;;;;207.65;142.38;;;7.20;78.70;;;;;;4961672;28;20128;-76
2023/05/03 00:28:49;;;;;;;161.85;125.18;;;7.10;78.70;;;;;;4962693;28;20145;-77
2023/05/03 00:31:15;;;;;;;122.05;93.35;;;7.10;78.60;;;;;;4961128;28;20482;-77
2023/05/03 00:33:40;;;;;;;87.03;68.68;;;7.10;78.50;;;;;;4970911;28;20193;-76
2023/05/03 00:36:11;;;;;;;54.15;43.53;;;7.20;78.10;;;;;;4961008;28;20485;-76
2023/05/03 00:38:37;;;;;;;47.47;38.90;;;7.10;78.00;;;;;;4958474;28;20031;-77
2023/05/03 00:41:03;;;;;;;47.75;39.80;;;7.10;78.00;;;;;;4966790;28;20139;-75
2023/05/03 00:43:29;;;;;;;46.35;41.30;;;7.20;78.00;;;;;;4965769;28;20022;-74
2023/05/03 00:45:55;;;;;;;47.55;38.80;;;7.20;77.70;;;;;;4960422;28;20118;-75
2023/05/03 00:48:21;;;;;;;31.27;24.83;;;7.20;77.70;;;;;;4967623;28;20468;-75
2023/05/03 00:50:47;;;;;;;28.45;21.30;;;7.20;77.60;;;;;;4953716;28;20039;-76
2023/05/03 00:53:13;;;;;;;50.88;34.78;;;7.20;77.50;;;;;;4958536;28;20027;-74
2023/05/03 00:55:40;;;;;;;21.05;16.05;;;7.20;77.30;;;;;;4958253;28;20061;-75
2023/05/03 00:58:06;;;;;;;21.52;13.43;;;7.20;77.20;;;;;;4958650;28;20038;-75
2023/05/03 01:00:32;;;;;;;20.42;10.88;;;7.10;77.00;;;;;;4952956;28;20054;-76
2023/05/03 01:02:58;;;;;;;20.42;12.77;;;7.10;77.30;;;;;;4959585;28;20039;-76
2023/05/03 01:05:27;;;;;;;18.70;10.82;;;7.10;77.50;;;;;;4970977;28;20035;-76
2023/05/03 01:08:07;;;;;;;20.95;11.90;;;7.00;77.60;;;;;;4972956;28;20081;-76
2023/05/03 01:10:50;;;;;;;17.48;9.95;;;7.00;77.50;;;;;;4957188;28;20054;-77
2023/05/03 01:13:26;;;;;;;16.38;10.80;;;7.00;77.40;;;;;;4965054;28;20058;-76
2023/05/03 01:16:17;;;;;;;18.65;10.18;;;6.90;77.60;;;;;;4972521;28;20034;-76
2023/05/03 01:18:47;;;;;;;17.65;10.93;;;7.00;77.60;;;;;;4965370;28;20026;-74
2023/05/03 01:21:17;;;;;;;20.48;11.45;;;7.00;77.40;;;;;;4959376;28;20384;-76
2023/05/03 01:23:58;;;;;;;20.25;12.38;;;7.00;77.40;;;;;;4959029;28;20023;-75
2023/05/03 01:26:26;;;;;;;18.65;12.73;;;7.00;77.40;;;;;;4964970;28;20046;-75
2023/05/03 01:28:53;;;;;;;19.20;11.07;;;7.00;77.20;;;;;;4974903;28;20089;-75
2023/05/03 01:31:27;;;;;;;17.67;10.25;;;6.90;77.10;;;;;;4964624;28;20039;-76
2023/05/03 01:34:15;;;;;;;16.42;10.20;;;7.00;77.20;;;;;;4970637;28;20495;-76
2023/05/03 01:36:43;;;;;;;17.65;10.35;;;7.00;76.80;;;;;;4968249;28;20050;-75
2023/05/03 01:39:18;;;;;;;16.75;8.73;;;7.00;76.80;;;;;;4972027;28;20019;-76
2023/05/03 01:41:45;;;;;;;16.02;9.52;;;7.00;76.40;;;;;;4966341;28;20684;-75
2023/05/03 01:44:12;;;;;;;12.55;7.82;;;6.90;76.30;;;;;;4977678;28;20019;-77
2023/05/03 01:46:44;;;;;;;15.15;8.68;;;6.90;76.20;;;;;;4976793;28;20077;-76
2023/05/03 01:49:10;;;;;;;12.93;9.25;;;6.90;76.20;;;;;;4966950;28;20037;-77
2023/05/03 01:51:36;;;;;;;13.18;8.90;;;6.80;76.50;;;;;;4967819;28;20034;-76
2023/05/03 01:54:02;;;;;;;16.65;8.27;;;6.70;76.80;;;;;;4963750;28;20311;-77
2023/05/03 01:56:29;;;;;;;14.90;8.68;;;6.70;76.80;;;;;;4962701;28;20070;-76
2023/05/03 01:58:55;;;;;;;13.32;8.73;;;6.80;76.70;;;;;;4964354;28;20033;-75
2023/05/03 02:01:20;;;;;;;14.35;8.73;;;6.80;76.60;;;;;;4972783;28;20042;-75
2023/05/03 02:03:46;;;;;;;14.65;8.40;;;6.80;76.30;;;;;;4957262;28;21516;-76
2023/05/03 02:06:11;;;;;;;15.05;8.35;;;6.80;76.40;;;;;;4956837;28;20039;-77
2023/05/03 02:08:37;;;;;;;13.40;8.18;;;6.70;76.40;;;;;;4962868;28;20514;-75
2023/05/03 02:11:03;;;;;;;14.10;9.10;;;6.70;76.40;;;;;;4966783;28;20065;-76
2023/05/03 02:13:28;;;;;;;13.80;7.88;;;6.70;76.50;;;;;;4966423;28;20109;-77
2023/05/03 02:15:54;;;;;;;13.15;8.55;;;6.70;76.30;;;;;;4964063;28;20037;-75
2023/05/03 02:18:21;;;;;;;14.70;7.82;;;6.70;76.50;;;;;;4968574;28;20448;-75
2023/05/03 02:20:46;;;;;;;15.30;8.27;;;6.80;76.40;;;;;;4963789;28;20015;-75
2023/05/03 02:23:13;;;;;;;13.75;8.23;;;6.70;76.40;;;;;;4962847;28;20023;-75
2023/05/03 02:25:40;;;;;;;15.50;8.27;;;6.70;76.70;;;;;;4962971;28;20090;-77
2023/05/03 02:28:06;;;;;;;15.77;8.32;;;6.70;76.40;;;;;;4963674;28;20042;-75
2023/05/03 02:30:32;;;;;;;12.40;7.97;;;6.70;76.60;;;;;;4968871;28;20367;-76
2023/05/03 02:32:58;;;;;;;15.68;7.72;;;6.70;76.70;;;;;;4960680;28;20423;-75
2023/05/03 02:35:25;;;;;;;11.48;7.70;;;6.60;76.80;;;;;;4969305;28;20041;-75
2023/05/03 02:37:50;;;;;;;13.68;7.50;;;6.60;76.90;;;;;;4954809;28;20027;-75
2023/05/03 02:40:16;;;;;;;13.10;7.78;;;6.60;77.10;;;;;;4964486;28;20030;-75
2023/05/03 02:42:42;;;;;;;12.90;7.72;;;6.60;77.30;;;;;;4964673;28;20027;-75
2023/05/03 02:45:08;;;;;;;11.57;7.93;;;6.60;77.40;;;;;;4969212;28;20098;-75
2023/05/03 02:47:34;;;;;;;15.45;8.75;;;6.60;77.40;;;;;;4962143;28;20070;-75
2023/05/03 02:49:59;;;;;;;12.75;7.22;;;6.50;77.40;;;;;;4968745;28;20055;-75
2023/05/03 02:52:25;;;;;;;12.95;8.00;;;6.50;77.40;;;;;;4959673;28;20035;-75
2023/05/03 02:54:51;;;;;;;13.20;7.28;;;6.60;77.30;;;;;;4964688;28;20032;-75
2023/05/03 02:57:16;;;;;;;16.08;7.60;;;6.60;77.30;;;;;;4958264;28;20769;-76
2023/05/03 02:59:42;;;;;;;13.00;7.78;;;6.50;77.40;;;;;;4959593;28;20101;-75
2023/05/03 03:02:08;;;;;;;13.35;7.82;;;6.50;77.50;;;;;;4967004;28;20046;-75
2023/05/03 03:04:33;;;;;;;14.05;8.85;;;6.50;77.60;;;;;;4965528;28;20015;-76
2023/05/03 03:06:59;;;;;;;18.60;8.20;;;6.50;77.60;;;;;;4958615;28;20049;-76
2023/05/03 03:09:25;;;;;;;14.75;7.95;;;6.50;77.50;;;;;;4963592;28;20383;-77
2023/05/03 03:11:51;;;;;;;14.40;7.72;;;6.50;77.50;;;;;;4961781;28;20078;-77
2023/05/03 03:14:17;;;;;;;13.88;7.80;;;6.50;77.70;;;;;;4962237;28;20033;-75
2023/05/03 03:16:44;;;;;;;14.43;7.20;;;6.50;77.40;;;;;;4971093;28;20030;-76
2023/05/03 03:19:10;;;;;;;11.48;7.10;;;6.50;77.50;;;;;;4967436;28;20454;-75
2023/05/03 03:21:36;;;;;;;12.52;7.03;;;6.50;77.50;;;;;;4960237;28;20110;-75
2023/05/03 03:24:03;;;;;;;17.98;7.68;;;6.50;77.40;;;;;;4963348;28;20038;-76
2023/05/03 03:26:28;;;;;;;12.20;7.43;;;6.50;77.30;;;;;;4964099;28;20353;-75
2023/05/03 03:28:54;;;;;;;12.73;7.85;;;6.50;77.20;;;;;;4967558;28;20061;-75
2023/05/03 03:31:21;;;;;;;12.48;7.60;;;6.50;77.20;;;;;;4961224;28;20027;-75
2023/05/03 03:33:48;;;;;;;12.65;7.32;;;6.50;77.30;;;;;;4967496;28;20181;-75
2023/05/03 03:36:14;;;;;;;12.80;7.75;;;6.40;77.30;;;;;;4969151;28;20100;-75
2023/05/03 03:38:42;;;;;;;12.30;7.05;;;6.40;77.70;;;;;;4968368;28;20039;-75
2023/05/03 03:41:08;;;;;;;15.85;6.97;;;6.40;77.70;;;;;;4970452;28;20443;-75
2023/05/03 03:43:34;;;;;;;13.23;8.13;;;6.40;77.80;;;;;;4967044;28;20943;-76
2023/05/03 03:45:59;;;;;;;12.18;7.57;;;6.30;78.00;;;;;;4967322;28;20662;-75
2023/05/03 03:48:25;;;;;;;14.75;8.15;;;6.30;78.00;;;;;;4973559;28;20050;-75
2023/05/03 03:50:51;;;;;;;17.25;8.95;;;6.20;78.10;;;;;;4957695;28;20542;-75
2023/05/03 03:53:17;;;;;;;14.20;7.45;;;6.20;78.40;;;;;;4964261;28;20577;-75
2023/05/03 03:55:42;;;;;;;16.15;8.43;;;6.20;78.50;;;;;;4960779;28;20492;-75
2023/05/03 03:58:08;;;;;;;14.80;7.63;;;6.20;78.50;;;;;;4967916;28;20083;-75
2023/05/03 04:00:37;;;;;;;15.93;8.40;;;6.20;78.40;;;;;;4964357;28;20422;-76
2023/05/03 04:03:05;;;;;;;13.75;7.97;;;6.20;78.40;;;;;;4963276;28;20121;-75
2023/05/03 04:05:31;;;;;;;15.32;7.68;;;6.20;78.50;;;;;;4963671;28;20062;-75
2023/05/03 04:07:56;;;;;;;13.45;7.75;;;6.20;78.50;;;;;;4966086;28;20495;-75
2023/05/03 04:10:22;;;;;;;15.48;8.45;;;6.20;78.60;;;;;;4964693;28;20451;-75
2023/05/03 04:12:48;;;;;;;13.82;7.63;;;6.10;78.50;;;;;;4964886;28;20047;-75
2023/05/03 04:15:14;;;;;;;14.57;7.72;;;6.10;78.80;;;;;;4972331;28;20507;-77
2023/05/03 04:17:40;;;;;;;14.70;7.97;;;6.10;79.00;;;;;;4970340;28;20031;-75
2023/05/03 04:20:06;;;;;;;16.58;8.35;;;6.10;79.10;;;;;;4956189;28;20023;-75
2023/05/03 04:22:32;;;;;;;13.73;7.85;;;6.10;79.10;;;;;;4971334;28;20026;-75
2023/05/03 04:25:00;;;;;;;12.43;7.85;;;6.10;79.00;;;;;;4964504;28;20027;-75
2023/05/03 04:27:26;;;;;;;12.07;7.20;;;6.10;78.80;;;;;;4967932;28;20478;-75
2023/05/03 04:29:52;;;;;;;14.60;8.23;;;6.20;78.90;;;;;;4969171;28;20031;-76
2023/05/03 04:32:22;;;;;;;13.35;7.78;;;6.10;78.50;;;;;;4964002;28;20038;-75
2023/05/03 04:34:49;;;;;;;14.35;7.80;;;6.10;78.70;;;;;;4964736;28;20027;-75
2023/05/03 04:37:15;;;;;;;14.65;7.85;;;6.10;78.70;;;;;;4966136;28;20062;-75
2023/05/03 04:39:40;;;;;;;13.68;7.97;;;6.20;78.60;;;;;;4952869;28;20055;-75
2023/05/03 04:42:07;;;;;;;14.50;8.07;;;6.20;78.40;;;;;;4950224;28;20098;-75
2023/05/03 04:44:33;;;;;;;12.82;7.82;;;6.10;78.50;;;;;;4955830;28;20023;-75
2023/05/03 04:46:58;;;;;;;15.52;7.53;;;6.20;78.50;;;;;;4952860;28;20427;-75
2023/05/03 04:49:24;;;;;;;15.88;7.88;;;6.20;78.40;;;;;;4955769;28;20039;-75
2023/05/03 04:51:50;;;;;;;13.60;7.70;;;6.20;78.30;;;;;;4960234;28;20053;-75
2023/05/03 04:54:16;;;;;;;13.50;7.57;;;6.20;78.40;;;;;;4962840;28;20023;-75
2023/05/03 04:56:41;;;;;;;16.38;8.10;;;6.30;78.40;;;;;;4964450;28;20041;-75
2023/05/03 04:59:07;;;;;;;13.60;7.10;;;6.30;78.20;;;;;;4960334;28;20027;-76
2023/05/03 05:01:33;;;;;;;15.45;7.68;;;6.30;78.30;;;;;;4968131;28;20046;-75
2023/05/03 05:03:59;;;;;;;13.10;7.55;;;6.30;78.30;;;;;;4958728;28;20106;-76
2023/05/03 05:06:24;;;;;;;15.75;8.18;;;6.30;78.40;;;;;;4963990;28;20039;-75
2023/05/03 05:08:50;;;;;;;14.00;8.30;;;6.40;78.30;;;;;;4963595;28;20023;-73
2023/05/03 05:11:16;;;;;;;14.85;7.72;;;6.40;78.50;;;;;;4964776;28;20461;-75
2023/05/03 05:13:41;;;;;;;13.25;7.53;;;6.50;78.10;;;;;;4964928;28;20063;-75
2023/05/03 05:16:07;;;;;;;15.50;7.25;;;6.40;78.00;;;;;;4966399;28;20042;-75
2023/05/03 05:18:33;;;;;;;13.88;7.70;;;6.50;78.20;;;;;;4964693;28;20517;-75
2023/05/03 05:20:59;;;;;;;12.88;7.40;;;6.50;78.00;;;;;;4953005;28;20035;-74
2023/05/03 05:23:26;;;;;;;14.88;7.78;;;6.60;78.10;;;;;;4964788;28;20052;-76
2023/05/03 05:25:52;;;;;;;13.55;9.00;;;6.60;77.90;;;;;;4969545;28;20027;-77
2023/05/03 05:28:18;;;;;;;12.73;7.82;;;6.60;78.00;;;;;;4958266;28;20055;-77
2023/05/03 05:30:44;;;;;;;16.50;7.90;;;6.70;77.70;;;;;;4966187;28;20106;-76
2023/05/03 05:33:09;;;;;;;12.75;7.47;;;6.80;77.60;;;;;;4969712;28;20037;-76
2023/05/03 05:35:35;;;;;;;12.05;7.20;;;6.80;77.50;;;;;;4961797;28;20030;-78
2023/05/03 05:38:01;;;;;;;14.52;8.93;;;6.80;77.40;;;;;;4965340;28;20415;-76
2023/05/03 05:40:27;;;;;;;14.77;8.13;;;6.90;77.40;;;;;;4955053;28;20460;-79
2023/05/03 05:42:52;;;;;;;13.75;8.20;;;7.10;77.10;;;;;;4998811;28;20031;-77
2023/05/03 05:45:18;;;;;;;11.23;8.52;;;7.20;76.60;;;;;;4959776;28;20542;-80
2023/05/03 05:47:44;;;;;;;17.67;8.13;;;7.40;76.50;;;;;;4964435;28;20376;-77
2023/05/03 05:50:10;;;;;;;12.50;7.82;;;7.50;76.20;;;;;;4966888;28;20015;-76
2023/05/03 05:52:35;;;;;;;13.82;7.97;;;7.60;76.00;;;;;;4970427;28;20092;-76
2023/05/03 05:55:01;;;;;;;17.10;8.20;;;7.70;76.20;;;;;;4964757;28;20026;-78
2023/05/03 05:57:27;;;;;;;15.88;7.63;;;7.80;75.70;;;;;;4963436;28;20439;-79
2023/05/03 05:59:53;;;;;;;14.05;7.97;;;8.00;75.30;;;;;;4964867;28;20042;-76
2023/05/03 06:02:22;;;;;;;15.45;8.00;;;8.10;74.90;;;;;;4964217;28;20035;-76
2023/05/03 06:04:47;;;;;;;13.25;7.57;;;8.20;74.30;;;;;;4973192;28;20046;-78
2023/05/03 06:07:15;;;;;;;10.93;7.90;;;8.30;74.10;;;;;;4971179;28;20121;-77
2023/05/03 06:09:41;;;;;;;15.10;8.20;;;8.50;73.80;;;;;;4965072;28;20084;-79
2023/05/03 06:12:07;;;;;;;16.05;8.80;;;8.50;72.80;;;;;;4962173;28;20058;-78
2023/05/03 06:14:32;;;;;;;13.50;8.20;;;8.60;73.20;;;;;;4968759;28;20025;-80
2023/05/03 06:16:59;;;;;;;12.75;7.80;;;8.70;72.90;;;;;;4960169;28;20097;-76
2023/05/03 06:19:25;;;;;;;15.52;8.35;;;8.80;72.00;;;;;;4966553;28;20042;-77
2023/05/03 06:21:50;;;;;;;13.05;8.30;;;8.80;71.80;;;;;;4963785;28;20387;-76
2023/05/03 06:24:19;;;;;;;16.17;8.38;;;8.90;71.60;;;;;;4968383;28;20407;-75
2023/05/03 06:26:47;;;;;;;12.30;7.75;;;9.00;71.60;;;;;;4966708;28;20043;-77
2023/05/03 06:29:12;;;;;;;12.25;8.63;;;9.10;71.30;;;;;;4960504;28;20518;-75
2023/05/03 06:31:40;;;;;;;15.25;8.70;;;9.20;70.90;;;;;;4961440;28;20157;-76
2023/05/03 06:34:06;;;;;;;13.45;8.60;;;9.20;70.40;;;;;;4967387;28;20022;-75
2023/05/03 06:36:32;;;;;;;17.30;8.55;;;9.30;69.90;;;;;;4965051;28;20038;-76
2023/05/03 06:38:57;;;;;;;18.00;8.88;;;9.40;69.90;;;;;;4968747;28;20041;-76
2023/05/03 06:41:23;;;;;;;13.30;8.50;;;9.50;69.60;;;;;;4963797;28;20023;-76
2023/05/03 06:43:49;;;;;;;15.45;8.20;;;9.60;69.70;;;;;;4964992;28;20402;-77
2023/05/03 06:46:15;;;;;;;14.38;8.82;;;9.70;69.40;;;;;;4960477;28;20062;-76
2023/05/03 06:48:41;;;;;;;12.45;8.43;;;9.70;69.00;;;;;;4964971;28;20663;-76
2023/05/03 06:51:06;;;;;;;13.43;8.82;;;9.80;69.00;;;;;;4970013;28;20037;-80
2023/05/03 06:53:32;;;;;;;13.30;8.35;;;10.10;69.50;;;;;;4962981;28;20118;-76
2023/05/03 06:55:58;;;;;;;14.27;8.48;;;10.30;68.30;;;;;;4955128;28;20383;-81
2023/05/03 06:58:23;;;;;;;17.75;9.70;;;10.40;66.40;;;;;;4961042;28;20034;-81
2023/05/03 07:00:52;;;;;;;16.75;9.40;;;10.40;66.40;;;;;;4955957;28;20426;-76
2023/05/03 07:03:18;;;;;;;16.10;9.95;;;10.60;66.60;;;;;;4956009;28;20035;-83
2023/05/03 07:05:45;;;;;;;16.63;9.95;;;10.60;66.20;;;;;;4956211;28;20257;-76
2023/05/03 07:08:11;;;;;;;15.52;9.40;;;10.70;65.70;;;;;;4953535;28;20054;-79
2023/05/03 07:10:36;;;;;;;15.82;9.93;;;10.90;66.00;;;;;;4960219;28;20030;-75
2023/05/03 07:13:02;;;;;;;15.63;10.02;;;10.90;65.60;;;;;;4955985;28;20027;-79
2023/05/03 07:15:28;;;;;;;17.30;9.68;;;11.10;64.40;;;;;;4967196;28;20372;-80
2023/05/03 07:17:54;;;;;;;17.10;10.15;;;11.30;64.40;;;;;;4952637;28;20061;-75
2023/05/03 07:20:20;;;;;;;16.27;10.13;;;11.30;64.30;;;;;;4955544;28;20110;-82
2023/05/03 07:22:47;;;;;;;15.68;10.73;;;11.40;63.40;;;;;;4957335;28;20027;-81
2023/05/03 07:25:15;;;;;;;17.38;11.45;;;11.50;63.80;;;;;;4971992;28;20027;-78
2023/05/03 07:27:40;;;;;;;15.10;9.98;;;11.60;62.80;;;;;;4954165;28;20038;-74
2023/05/03 07:30:07;;;;;;;17.13;11.05;;;11.90;63.60;;;;;;4954826;28;20027;-82
2023/05/03 07:32:32;;;;;;;17.02;10.50;;;12.10;62.60;;;;;;4960411;28;20113;-78
2023/05/03 07:34:58;;;;;;;15.25;10.45;;;12.10;60.90;;;;;;4962238;28;20026;-76
2023/05/03 07:37:25;;;;;;;15.40;10.40;;;12.20;60.80;;;;;;4957249;28;20050;-80
2023/05/03 07:39:51;;;;;;;19.05;11.27;;;12.40;61.10;;;;;;4961690;28;20350;-78
2023/05/03 07:42:17;;;;;;;16.92;10.88;;;12.20;61.20;;;;;;4965322;28;20027;-77
2023/05/03 07:44:43;;;;;;;18.45;11.30;;;12.00;61.10;;;;;;4958881;28;20459;-79
2023/05/03 07:47:09;;;;;;;20.10;10.98;;;12.40;62.00;;;;;;4961595;28;20063;-76
2023/05/03 07:49:36;;;;;;;20.08;12.27;;;12.60;60.10;;;;;;4961943;28;20275;-75
2023/05/03 07:52:02;;;;;;;18.80;11.85;;;12.50;60.90;;;;;;4966681;28;20057;-76
2023/05/03 07:54:28;;;;;;;18.73;12.52;;;12.60;59.80;;;;;;4966191;28;20061;-72
2023/05/03 07:56:54;;;;;;;17.98;11.52;;;12.70;59.10;;;;;;4964653;28;20031;-74
2023/05/03 07:59:19;;;;;;;19.23;12.27;;;12.80;59.30;;;;;;4965454;28;20035;-75
2023/05/03 08:01:45;;;;;;;19.30;12.35;;;13.00;59.00;;;;;;4966452;28;20035;-74
2023/05/03 08:04:11;;;;;;;20.38;13.43;;;13.20;58.20;;;;;;4967523;28;20030;-73
2023/05/03 08:06:37;;;;;;;18.70;12.15;;;13.20;58.20;;;;;;4964137;28;20129;-75
2023/05/03 08:09:03;;;;;;;18.48;12.60;;;13.40;57.30;;;;;;4961868;28;20139;-75
2023/05/03 08:11:29;;;;;;;21.67;12.00;;;13.60;57.50;;;;;;4959538;28;20038;-80
2023/05/03 08:13:55;;;;;;;17.63;11.68;;;13.70;56.80;;;;;;4962145;28;20035;-78
2023/05/03 08:16:21;;;;;;;18.00;12.15;;;13.90;56.80;;;;;;4959263;28;20124;-81
2023/05/03 08:18:46;;;;;;;18.58;12.80;;;13.90;55.30;;;;;;4960255;28;20087;-77
2023/05/03 08:21:15;;;;;;;19.05;11.80;;;14.20;55.60;;;;;;4958244;28;20070;-78
2023/05/03 08:23:41;;;;;;;17.88;12.35;;;14.00;55.70;;;;;;4966388;28;20030;-79
2023/05/03 08:26:08;;;;;;;22.08;13.02;;;13.50;56.80;;;;;;4972049;28;20043;-78
2023/05/03 08:28:35;;;;;;;19.73;12.43;;;14.00;56.40;;;;;;4973129;28;20026;-78
2023/05/03 08:31:03;;;;;;;22.30;13.65;;;13.70;55.90;;;;;;4971961;28;20134;-76
2023/05/03 08:33:29;;;;;;;19.45;12.55;;;14.00;54.90;;;;;;4968070;28;20031;-83
2023/05/03 08:35:55;;;;;;;17.17;12.32;;;14.40;54.80;;;;;;4979666;28;20030;-77
2023/05/03 08:38:21;;;;;;;17.30;13.50;;;14.80;55.60;;;;;;4963044;28;20058;-75
2023/05/03 08:40:50;;;;;;;20.13;13.68;;;14.90;52.80;;;;;;4967972;28;20039;-75
2023/05/03 08:43:19;;;;;;;21.48;14.18;;;14.30;54.50;;;;;;4960768;28;20460;-79
2023/05/03 08:45:45;;;;;;;19.38;12.70;;;14.80;53.90;;;;;;4959005;28;20042;-82
2023/05/03 08:48:13;;;;;;;19.85;13.65;;;14.80;52.60;;;;;;4967298;28;20490;-78
2023/05/03 08:50:41;;;;;;;25.92;13.73;;;14.80;53.20;;;;;;4970090;28;20543;-76
2023/05/03 08:53:08;;;;;;;21.08;13.63;;;14.90;52.20;;;;;;4970541;28;20118;-76
2023/05/03 08:55:34;;;;;;;22.05;13.95;;;14.80;52.80;;;;;;4969697;28;20033;-79
2023/05/03 08:58:00;;;;;;;19.85;13.20;;;15.10;51.20;;;;;;4969339;28;20344;-75
2023/05/03 09:00:29;;;;;;;19.92;13.63;;;15.50;51.90;;;;;;4967580;28;20019;-74
2023/05/03 09:02:55;;;;;;;18.60;13.75;;;15.70;50.70;;;;;;4968325;28;20043;-77
2023/05/03 09:05:21;;;;;;;22.95;15.00;;;15.70;50.60;;;;;;4967615;28;20085;-77
2023/05/03 09:08:05;;;;;;;22.90;15.05;;;15.80;49.40;;;;;;4966058;28;20054;-77
2023/05/03 09:10:32;;;;;;;21.65;14.05;;;15.70;49.00;;;;;;4956829;28;20467;-82
2023/05/03 09:13:00;;;;;;;25.13;15.30;;;15.40;49.30;;;;;;4967265;28;20026;-75
2023/05/03 09:15:29;;;;;;;21.63;14.00;;;15.30;49.20;;;;;;4968628;28;20026;-80
2023/05/03 09:18:16;;;;;;;20.92;13.95;;;15.50;50.50;;;;;;4972435;28;20129;-77
2023/05/03 09:20:50;;;;;;;23.42;14.13;;;15.50;48.80;;;;;;4964290;28;20027;-76
2023/05/03 09:23:17;;;;;;;19.67;14.23;;;15.80;48.60;;;;;;4969459;28;20035;-77
2023/05/03 09:25:46;;;;;;;21.95;14.35;;;16.10;47.60;;;;;;4969795;28;20031;-75
2023/05/03 09:28:13;;;;;;;22.00;14.32;;;16.30;45.80;;;;;;4969460;28;20027;-76
2023/05/03 09:30:38;;;;;;;20.17;14.48;;;16.40;47.20;;;;;;4968906;28;20026;-76
2023/05/03 09:33:04;;;;;;;18.17;13.85;;;16.50;46.20;;;;;;4962965;28;20310;-77
2023/05/03 09:35:31;;;;;;;19.48;13.10;;;16.50;46.50;;;;;;4973518;28;20431;-81
2023/05/03 09:37:57;;;;;;;18.55;13.57;;;16.60;45.90;;;;;;4971912;28;20027;-78
2023/05/03 09:40:23;;;;;;;18.75;12.90;;;16.60;44.90;;;;;;4968201;28;20035;-78
2023/05/03 09:43:10;;;;;;;18.00;12.95;;;16.50;45.50;;;;;;4963991;28;20137;-81
2023/05/03 09:45:36;;;;;;;19.27;12.85;;;16.70;45.50;;;;;;4977941;28;20046;-77
2023/05/03 09:48:03;;;;;;;18.13;13.40;;;17.10;45.40;;;;;;4968168;28;20382;-79
2023/05/03 09:50:33;;;;;;;19.30;13.73;;;17.10;43.70;;;;;;4967740;28;20030;-81
2023/05/03 09:53:02;;;;;;;20.45;13.95;;;17.00;44.80;;;;;;4969019;28;20106;-79
2023/05/03 09:55:34;;;;;;;17.02;13.30;;;17.10;45.90;;;;;;4964366;28;20031;-79
2023/05/03 09:58:05;;;;;;;20.55;13.23;;;16.60;44.40;;;;;;4967916;28;20030;-81
2023/05/03 10:00:37;;;;;;;18.20;13.05;;;16.50;46.00;;;;;;4966220;28;20042;-75
2023/05/03 10:03:11;;;;;;;18.92;13.27;;;17.00;44.50;;;;;;4968838;28;20054;-73
2023/05/03 10:05:44;;;;;;;19.10;13.43;;;17.20;43.90;;;;;;4966103;28;20027;-72
2023/05/03 10:08:23;;;;;;;21.13;13.07;;;17.10;44.00;;;;;;4961981;28;20046;-74
2023/05/03 10:10:52;;;;;;;19.25;14.55;;;17.20;45.60;;;;;;4963018;28;20281;-73
2023/05/03 10:13:21;;;;;;;21.45;13.38;;;17.20;43.40;;;;;;4971990;28;20118;-74
2023/05/03 10:15:53;;;;;;;22.05;14.38;;;17.10;44.90;;;;;;4965184;28;20034;-73
2023/05/03 10:18:20;;;;;;;18.98;13.30;;;16.90;44.20;;;;;;4968749;28;20106;-73
2023/05/03 10:21:06;;;;;;;21.02;13.52;;;17.10;44.80;;;;;;4967958;28;20483;-74
2023/05/03 10:23:31;;;;;;;17.60;13.20;;;17.10;44.10;;;;;;4966711;28;20021;-73
2023/05/03 10:26:08;;;;;;;20.05;13.13;;;16.90;45.50;;;;;;4968408;28;20031;-73
2023/05/03 10:28:34;;;;;;;20.38;13.68;;;17.10;44.20;;;;;;4964806;28;20142;-72
2023/05/03 10:31:00;;;;;;;20.77;14.73;;;17.50;45.10;;;;;;4963521;28;20409;-72
2023/05/03 10:33:36;;;;;;;18.23;13.65;;;17.60;44.00;;;;;;4964496;28;20481;-72
2023/05/03 10:36:12;;;;;;;19.08;14.15;;;17.60;43.60;;;;;;4975348;28;20156;-73
2023/05/03 10:38:37;;;;;;;19.20;13.27;;;17.90;42.70;;;;;;4959301;28;20458;-72
2023/05/03 10:41:05;;;;;;;17.10;13.95;;;17.60;41.90;;;;;;4956557;28;20045;-72
2023/05/03 10:43:34;;;;;;;21.27;14.98;;;17.50;42.40;;;;;;4953276;28;20452;-73
2023/05/03 10:46:02;;;;;;;21.98;14.15;;;17.10;42.80;;;;;;4957315;28;20064;-74
2023/05/03 10:48:29;;;;;;;19.08;14.95;;;16.90;45.00;;;;;;4956687;28;20061;-73
2023/05/03 10:50:56;;;;;;;21.88;15.98;;;16.50;43.80;;;;;;4953836;28;20035;-73
2023/05/03 10:53:36;;;;;;;18.85;14.38;;;16.30;46.00;;;;;;4957719;28;20482;-73
2023/05/03 10:56:06;;;;;;;21.90;14.27;;;16.60;44.20;;;;;;4955440;28;20503;-73
2023/05/03 10:58:41;;;;;;;19.52;14.55;;;16.10;44.70;;;;;;4958108;28;20046;-73
2023/05/03 11:01:15;;;;;;;40.33;28.20;;;16.70;45.80;;;;;;5036839;27;20450;-72
2023/05/03 11:03:56;;;;;;;26.83;18.73;;;17.10;44.20;;;;;;4966984;28;20035;-73
2023/05/03 11:06:32;;;;;;;39.65;29.00;;;17.60;45.10;;;;;;4950338;28;20640;-74
2023/05/03 11:08:59;;;;;;;22.92;16.42;;;17.90;42.70;;;;;;4973872;28;20030;-74
2023/05/03 11:11:25;;;;;;;18.33;14.48;;;18.30;42.30;;;;;;4981152;28;20680;-74
2023/05/03 11:13:51;;;;;;;56.50;37.95;;;18.40;41.50;;;;;;4994281;28;20052;-75
2023/05/03 11:16:17;;;;;;;33.47;22.13;;;18.40;41.50;;;;;;4992424;28;20130;-74
2023/05/03 11:18:43;;;;;;;36.58;25.23;;;18.20;41.90;;;;;;4993910;28;20040;-72
2023/05/03 11:21:10;;;;;;;31.08;21.58;;;18.40;41.10;;;;;;4994692;28;20066;-72
2023/05/03 11:23:38;;;;;;;19.83;14.32;;;18.60;40.90;;;;;;4989677;28;20425;-73
2023/05/03 11:26:07;;;;;;;21.48;14.38;;;18.60;41.60;;;;;;4993993;28;20264;-73
2023/05/03 11:28:33;;;;;;;21.40;14.95;;;18.60;40.30;;;;;;4985910;28;20038;-72
2023/05/03 11:31:00;;;;;;;19.75;13.90;;;18.80;40.60;;;;;;4984926;28;20483;-72
2023/05/03 11:33:29;;;;;;;19.10;13.82;;;18.60;41.20;;;;;;4977400;28;20073;-73
2023/05/03 11:35:55;;;;;;;20.20;13.75;;;18.60;41.60;;;;;;4976158;28;20244;-72
2023/05/03 11:38:21;;;;;;;23.65;15.10;;;18.60;41.80;;;;;;4974648;28;20176;-73
2023/05/03 11:40:47;;;;;;;20.38;14.45;;;18.90;42.10;;;;;;4976157;28;20069;-72
2023/05/03 11:43:13;;;;;;;19.60;14.25;;;18.80;40.40;;;;;;4974454;28;20444;-72
2023/05/03 11:45:44;;;;;;;18.20;13.93;;;18.40;40.90;;;;;;4974921;28;20086;-73
2023/05/03 11:48:13;;;;;;;16.55;13.02;;;18.20;41.00;;;;;;4973707;28;20051;-72
2023/05/03 11:50:47;;;;;;;17.85;13.30;;;18.20;41.10;;;;;;4978751;28;20129;-73
2023/05/03 11:53:17;;;;;;;24.60;14.68;;;18.50;41.10;;;;;;4979295;28;20452;-72
2023/05/03 11:55:46;;;;;;;22.50;14.70;;;18.70;40.80;;;;;;4977377;28;20034;-75
2023/05/03 11:58:14;;;;;;;19.85;13.63;;;18.80;39.70;;;;;;4978509;28;20023;-75
2023/05/03 12:00:45;;;;;;;20.90;14.02;;;18.60;39.30;;;;;;4973199;28;20077;-75
2023/05/03 12:03:26;;;;;;;18.33;12.93;;;18.50;39.80;;;;;;4978393;28;20034;-72
2023/05/03 12:05:52;;;;;;;20.63;13.88;;;18.60;40.60;;;;;;4974584;28;20018;-74
2023/05/03 12:08:21;;;;;;;20.48;13.35;;;18.50;41.40;;;;;;4977289;28;20384;-73
2023/05/03 12:10:50;;;;;;;19.50;14.13;;;18.80;40.70;;;;;;4969278;28;20090;-72
2023/05/03 12:13:27;;;;;;;17.13;12.98;;;18.80;37.80;;;;;;4963880;28;20031;-73
2023/05/03 12:15:57;;;;;;;20.75;13.25;;;18.10;41.00;;;;;;4964661;28;20027;-73
2023/05/03 12:18:23;;;;;;;17.95;12.98;;;18.50;40.60;;;;;;4962195;28;20027;-72
2023/05/03 12:20:56;;;;;;;16.52;12.98;;;18.30;40.60;;;;;;4963818;28;20096;-72
2023/05/03 12:23:22;;;;;;;20.83;14.23;;;18.80;40.20;;;;;;4965200;28;20054;-73
2023/05/03 12:25:49;;;;;;;18.83;13.05;;;19.00;39.40;;;;;;4964879;28;20102;-72
2023/05/03 12:28:16;;;;;;;19.27;13.88;;;19.10;41.00;;;;;;4985846;28;20061;-72
2023/05/03 12:30:41;;;;;;;20.10;13.20;;;18.80;40.10;;;;;;4982129;28;20408;-73
2023/05/03 12:33:08;;;;;;;19.98;13.52;;;18.50;41.80;;;;;;4965649;28;20058;-74
2023/05/03 12:35:34;;;;;;;19.90;13.88;;;18.80;40.10;;;;;;4980228;28;20399;-73
2023/05/03 12:38:02;;;;;;;19.15;13.35;;;18.70;40.60;;;;;;4963233;28;20034;-74